AVA8516 SKRG-SKRH
Flight info
| Callsign | AVA8516 |
|---|---|
| Flight time | N/A |
| Altitude | 39000 |
| Route | BIVIG1B BIVIG DCT GERNA DCT ELB DCT ISLAG DCT VUP VUP1S |
| Aircraft | A20N/M-SDE2E3FGHIRWXY/LB1 |
Departure
| Time | N/A |
|---|---|
| Airport | Jose Maria Córdova International Airport (SKRG) |
Arrival
| Time | 2026-05-09 02:50 |
|---|---|
| Airport | Almirante Padilla Airport (SKRH) |
| Time | Latitude | Longitude | Altitude | Speed | Heading |
|---|---|---|---|---|---|
| 2026-05-09 01:57 | 7.09794 | -75.15229 | 29144 ft | 414 kts | 29° |
| 2026-05-09 01:57 | 7.12296 | -75.13855 | 29511 ft | 416 kts | 29° |
| 2026-05-09 01:58 | 7.14844 | -75.12462 | 29866 ft | 418 kts | 28° |
| 2026-05-09 01:58 | 7.17398 | -75.11068 | 30210 ft | 420 kts | 28° |
| 2026-05-09 01:58 | 7.19981 | -75.09662 | 30542 ft | 423 kts | 28° |
| 2026-05-09 01:58 | 7.22568 | -75.08253 | 30859 ft | 425 kts | 28° |
| 2026-05-09 01:59 | 7.25134 | -75.06853 | 31157 ft | 428 kts | 28° |
| 2026-05-09 01:59 | 7.27749 | -75.05427 | 31453 ft | 430 kts | 28° |
| 2026-05-09 01:59 | 7.30386 | -75.03989 | 31742 ft | 432 kts | 29° |
| 2026-05-09 01:59 | 7.33018 | -75.02552 | 32022 ft | 434 kts | 29° |
| 2026-05-09 02:00 | 7.34097 | -75.01963 | 32134 ft | 435 kts | 29° |
| 2026-05-09 02:00 | 7.36761 | -75.00508 | 32405 ft | 437 kts | 29° |
| 2026-05-09 02:00 | 7.39433 | -74.99048 | 32672 ft | 439 kts | 29° |
| 2026-05-09 02:00 | 7.42092 | -74.97592 | 32925 ft | 440 kts | 29° |
| 2026-05-09 02:01 | 7.44774 | -74.96125 | 33170 ft | 442 kts | 29° |
| 2026-05-09 02:01 | 7.47494 | -74.94637 | 33406 ft | 443 kts | 29° |
| 2026-05-09 02:01 | 7.50176 | -74.93171 | 33679 ft | 443 kts | 29° |
| 2026-05-09 02:01 | 7.52885 | -74.91691 | 33997 ft | 442 kts | 29° |
| 2026-05-09 02:02 | 7.55557 | -74.90231 | 34305 ft | 441 kts | 29° |
| 2026-05-09 02:02 | 7.58258 | -74.88754 | 34599 ft | 440 kts | 29° |
| 2026-05-09 02:02 | 7.60911 | -74.87303 | 34873 ft | 439 kts | 29° |
| 2026-05-09 02:02 | 7.63569 | -74.85797 | 35129 ft | 438 kts | 32° |
| 2026-05-09 02:03 | 7.66172 | -74.84182 | 35340 ft | 439 kts | 33° |
| 2026-05-09 02:03 | 7.68736 | -74.82560 | 35583 ft | 438 kts | 33° |
| 2026-05-09 02:03 | 7.71279 | -74.80947 | 35854 ft | 436 kts | 33° |
| 2026-05-09 02:03 | 7.73855 | -74.79317 | 36120 ft | 435 kts | 33° |
| 2026-05-09 02:04 | 7.76404 | -74.77708 | 36357 ft | 434 kts | 33° |
| 2026-05-09 02:04 | 7.78942 | -74.76112 | 36567 ft | 434 kts | 32° |
| 2026-05-09 02:04 | 7.81501 | -74.74505 | 36758 ft | 434 kts | 32° |
| 2026-05-09 02:04 | 7.84054 | -74.72900 | 36936 ft | 434 kts | 32° |
| 2026-05-09 02:05 | 7.86604 | -74.71294 | 37108 ft | 434 kts | 33° |
| 2026-05-09 02:05 | 7.89147 | -74.69683 | 37275 ft | 434 kts | 33° |
| 2026-05-09 02:05 | 7.91697 | -74.68070 | 37436 ft | 434 kts | 33° |
| 2026-05-09 02:05 | 7.94250 | -74.66457 | 37592 ft | 434 kts | 33° |
| 2026-05-09 02:06 | 7.96772 | -74.64864 | 37739 ft | 434 kts | 33° |
| 2026-05-09 02:06 | 7.99344 | -74.63240 | 37883 ft | 434 kts | 33° |
| 2026-05-09 02:06 | 8.01886 | -74.61632 | 38019 ft | 434 kts | 33° |
| 2026-05-09 02:07 | 8.06977 | -74.58413 | 38283 ft | 434 kts | 33° |
| 2026-05-09 02:07 | 8.09523 | -74.56808 | 38409 ft | 434 kts | 33° |
| 2026-05-09 02:07 | 8.12073 | -74.55203 | 38530 ft | 434 kts | 33° |
| 2026-05-09 02:07 | 8.14623 | -74.53599 | 38648 ft | 434 kts | 33° |
| 2026-05-09 02:08 | 8.17177 | -74.51993 | 38764 ft | 434 kts | 33° |
| 2026-05-09 02:08 | 8.19731 | -74.50383 | 38876 ft | 434 kts | 33° |
| 2026-05-09 02:08 | 8.22271 | -74.48782 | 38984 ft | 434 kts | 33° |
| 2026-05-09 02:09 | 8.27385 | -74.45555 | 39030 ft | 435 kts | 33° |
| 2026-05-09 02:09 | 8.32467 | -74.42349 | 39036 ft | 435 kts | 33° |
| 2026-05-09 02:10 | 8.37598 | -74.39102 | 39037 ft | 435 kts | 33° |
| 2026-05-09 02:10 | 8.42696 | -74.35878 | 39037 ft | 435 kts | 33° |
| 2026-05-09 02:11 | 8.47779 | -74.32646 | 39037 ft | 435 kts | 33° |
| 2026-05-09 02:11 | 8.52881 | -74.29394 | 39037 ft | 435 kts | 33° |
| 2026-05-09 02:12 | 8.57995 | -74.26150 | 39032 ft | 435 kts | 33° |
| 2026-05-09 02:12 | 8.63096 | -74.22920 | 39023 ft | 434 kts | 33° |
| 2026-05-09 02:13 | 8.68179 | -74.19701 | 39010 ft | 434 kts | 33° |
| 2026-05-09 02:13 | 8.73269 | -74.16472 | 38996 ft | 434 kts | 33° |
| 2026-05-09 02:14 | 8.78368 | -74.13238 | 38988 ft | 435 kts | 33° |
| 2026-05-09 02:14 | 8.83484 | -74.09996 | 38984 ft | 434 kts | 33° |
| 2026-05-09 02:15 | 8.88589 | -74.06761 | 38983 ft | 434 kts | 33° |
| 2026-05-09 02:15 | 8.93678 | -74.03539 | 38983 ft | 434 kts | 33° |
| 2026-05-09 02:16 | 8.98789 | -74.00297 | 38982 ft | 434 kts | 33° |
| 2026-05-09 02:16 | 9.03950 | -73.97189 | 38978 ft | 435 kts | 28° |
| 2026-05-09 02:17 | 9.09454 | -73.94617 | 38975 ft | 436 kts | 23° |
| 2026-05-09 02:17 | 9.15052 | -73.92350 | 38973 ft | 437 kts | 22° |
| 2026-05-09 02:18 | 9.20666 | -73.90083 | 38961 ft | 437 kts | 22° |
| 2026-05-09 02:18 | 9.26288 | -73.87798 | 38927 ft | 437 kts | 23° |
| 2026-05-09 02:19 | 9.31908 | -73.85511 | 38910 ft | 437 kts | 23° |
| 2026-05-09 02:19 | 9.37536 | -73.83218 | 38904 ft | 437 kts | 23° |
| 2026-05-09 02:20 | 9.43135 | -73.80935 | 38902 ft | 437 kts | 23° |
| 2026-05-09 02:20 | 9.48767 | -73.78639 | 38901 ft | 437 kts | 23° |
| 2026-05-09 02:21 | 9.54363 | -73.76358 | 38901 ft | 437 kts | 23° |
| 2026-05-09 02:21 | 9.57194 | -73.75204 | 38769 ft | 439 kts | 23° |
| 2026-05-09 02:21 | 9.60001 | -73.74059 | 38133 ft | 446 kts | 23° |
| 2026-05-09 02:21 | 9.62913 | -73.72871 | 37343 ft | 450 kts | 23° |
| 2026-05-09 02:22 | 9.65771 | -73.71699 | 36663 ft | 450 kts | 24° |
| 2026-05-09 02:22 | 9.68627 | -73.70400 | 36008 ft | 449 kts | 27° |
| 2026-05-09 02:22 | 9.71364 | -73.68955 | 35340 ft | 448 kts | 30° |
| 2026-05-09 02:22 | 9.74054 | -73.67370 | 34611 ft | 449 kts | 31° |
| 2026-05-09 02:23 | 9.76715 | -73.65766 | 33824 ft | 452 kts | 32° |
| 2026-05-09 02:23 | 9.79418 | -73.64131 | 33060 ft | 453 kts | 32° |
| 2026-05-09 02:23 | 9.82124 | -73.62495 | 32343 ft | 453 kts | 32° |
| 2026-05-09 02:23 | 9.84785 | -73.60889 | 31659 ft | 453 kts | 31° |
| 2026-05-09 02:24 | 9.87472 | -73.59270 | 31184 ft | 447 kts | 31° |
| 2026-05-09 02:24 | 9.90132 | -73.57667 | 30740 ft | 441 kts | 31° |
| 2026-05-09 02:24 | 9.92739 | -73.56097 | 30301 ft | 435 kts | 31° |
| 2026-05-09 02:24 | 9.95301 | -73.54555 | 29866 ft | 430 kts | 31° |
| 2026-05-09 02:25 | 9.97874 | -73.53006 | 29428 ft | 426 kts | 31° |
| 2026-05-09 02:25 | 10.00392 | -73.51491 | 28996 ft | 421 kts | 31° |
| 2026-05-09 02:25 | 10.02877 | -73.49995 | 28569 ft | 417 kts | 31° |
| 2026-05-09 02:25 | 10.05345 | -73.48507 | 28143 ft | 412 kts | 32° |
| 2026-05-09 02:26 | 10.07772 | -73.47040 | 27722 ft | 408 kts | 32° |
| 2026-05-09 02:26 | 10.10196 | -73.45574 | 27298 ft | 405 kts | 32° |
| 2026-05-09 02:26 | 10.12617 | -73.44118 | 26872 ft | 401 kts | 31° |
| 2026-05-09 02:26 | 10.14980 | -73.42699 | 26457 ft | 398 kts | 32° |
| 2026-05-09 02:27 | 10.17331 | -73.41284 | 26037 ft | 394 kts | 32° |
| 2026-05-09 02:27 | 10.19702 | -73.39855 | 25613 ft | 391 kts | 32° |
| 2026-05-09 02:27 | 10.22020 | -73.38456 | 25195 ft | 388 kts | 32° |
| 2026-05-09 02:27 | 10.24302 | -73.37077 | 24781 ft | 386 kts | 32° |
| 2026-05-09 02:28 | 10.26593 | -73.35692 | 24364 ft | 383 kts | 32° |
| 2026-05-09 02:28 | 10.28864 | -73.34317 | 23950 ft | 380 kts | 32° |
| 2026-05-09 02:28 | 10.31117 | -73.32942 | 23537 ft | 377 kts | 32° |
| 2026-05-09 02:28 | 10.33344 | -73.31587 | 23127 ft | 375 kts | 32° |
| 2026-05-09 02:29 | 10.35582 | -73.30228 | 22714 ft | 372 kts | 32° |
| 2026-05-09 02:29 | 10.37321 | -73.29176 | 22392 ft | 370 kts | 32° |
| 2026-05-09 02:30 | 10.38193 | -73.28649 | 22230 ft | 369 kts | 32° |
| 2026-05-09 02:30 | 10.40385 | -73.27321 | 21823 ft | 367 kts | 32° |
| 2026-05-09 02:30 | 10.42578 | -73.26022 | 21420 ft | 365 kts | 30° |
| 2026-05-09 02:30 | 10.44842 | -73.24886 | 21023 ft | 363 kts | 25° |
| 2026-05-09 02:31 | 10.47157 | -73.23962 | 20628 ft | 361 kts | 20° |
| 2026-05-09 02:31 | 10.49550 | -73.23161 | 20216 ft | 359 kts | 19° |
| 2026-05-09 02:31 | 10.51917 | -73.22392 | 19813 ft | 357 kts | 19° |
| 2026-05-09 02:31 | 10.54255 | -73.21635 | 19416 ft | 355 kts | 19° |
| 2026-05-09 02:32 | 10.56598 | -73.20875 | 19019 ft | 352 kts | 19° |
| 2026-05-09 02:32 | 10.58915 | -73.20120 | 18626 ft | 350 kts | 19° |
| 2026-05-09 02:32 | 10.61198 | -73.19376 | 18238 ft | 347 kts | 19° |
| 2026-05-09 02:32 | 10.63494 | -73.18626 | 17848 ft | 345 kts | 19° |
| 2026-05-09 02:33 | 10.65739 | -73.17891 | 17465 ft | 343 kts | 19° |
| 2026-05-09 02:33 | 10.68016 | -73.17147 | 17077 ft | 340 kts | 19° |
| 2026-05-09 02:33 | 10.70230 | -73.16422 | 16699 ft | 338 kts | 19° |
| 2026-05-09 02:33 | 10.72450 | -73.15696 | 16319 ft | 336 kts | 19° |
| 2026-05-09 02:34 | 10.74663 | -73.14972 | 15939 ft | 333 kts | 19° |
| 2026-05-09 02:34 | 10.76873 | -73.14249 | 15558 ft | 331 kts | 19° |
| 2026-05-09 02:34 | 10.79023 | -73.13546 | 15187 ft | 329 kts | 19° |
| 2026-05-09 02:34 | 10.81183 | -73.12839 | 14813 ft | 327 kts | 19° |
| 2026-05-09 02:35 | 10.83336 | -73.12136 | 14440 ft | 325 kts | 19° |
| 2026-05-09 02:35 | 10.85462 | -73.11440 | 14071 ft | 322 kts | 19° |
| 2026-05-09 02:35 | 10.87589 | -73.10743 | 13700 ft | 320 kts | 19° |
| 2026-05-09 02:35 | 10.89699 | -73.10052 | 13332 ft | 318 kts | 19° |
| 2026-05-09 02:36 | 10.91796 | -73.09373 | 12965 ft | 317 kts | 18° |
| 2026-05-09 02:36 | 10.93891 | -73.08755 | 12600 ft | 315 kts | 17° |
| 2026-05-09 02:36 | 10.95981 | -73.08160 | 12236 ft | 313 kts | 17° |
| 2026-05-09 02:36 | 10.98074 | -73.07564 | 11870 ft | 312 kts | 17° |
| 2026-05-09 02:37 | 11.00160 | -73.06965 | 11504 ft | 310 kts | 17° |
| 2026-05-09 02:37 | 11.02227 | -73.06380 | 11137 ft | 309 kts | 14° |
| 2026-05-09 02:37 | 11.04338 | -73.06229 | 10766 ft | 311 kts | 355° |
| 2026-05-09 02:37 | 11.06419 | -73.06825 | 10403 ft | 311 kts | 338° |
| 2026-05-09 02:38 | 11.08367 | -73.07787 | 10041 ft | 310 kts | 334° |
| 2026-05-09 02:38 | 11.10221 | -73.08763 | 9977 ft | 297 kts | 334° |
| 2026-05-09 02:38 | 11.12034 | -73.09712 | 9788 ft | 291 kts | 335° |
| 2026-05-09 02:38 | 11.13833 | -73.10638 | 9456 ft | 289 kts | 335° |
| 2026-05-09 02:39 | 11.15594 | -73.11539 | 9142 ft | 287 kts | 335° |
| 2026-05-09 02:39 | 11.17366 | -73.12442 | 8830 ft | 284 kts | 335° |
| 2026-05-09 02:39 | 11.19126 | -73.13338 | 8521 ft | 282 kts | 335° |
| 2026-05-09 02:39 | 11.20878 | -73.14230 | 8219 ft | 280 kts | 335° |
| 2026-05-09 02:40 | 11.22609 | -73.15111 | 7920 ft | 277 kts | 335° |
| 2026-05-09 02:40 | 11.24310 | -73.15975 | 7628 ft | 275 kts | 335° |
| 2026-05-09 02:40 | 11.26020 | -73.16844 | 7331 ft | 272 kts | 335° |
| 2026-05-09 02:40 | 11.27698 | -73.17696 | 7031 ft | 271 kts | 335° |
| 2026-05-09 02:41 | 11.29380 | -73.18552 | 6738 ft | 269 kts | 335° |
| 2026-05-09 02:41 | 11.31032 | -73.19392 | 6449 ft | 267 kts | 335° |
| 2026-05-09 02:41 | 11.32688 | -73.20234 | 6158 ft | 265 kts | 335° |
| 2026-05-09 02:41 | 11.34323 | -73.21063 | 5873 ft | 264 kts | 335° |
| 2026-05-09 02:42 | 11.35959 | -73.21893 | 5591 ft | 262 kts | 335° |
| 2026-05-09 02:42 | 11.37586 | -73.22689 | 5297 ft | 260 kts | 342° |
| 2026-05-09 02:42 | 11.39340 | -73.22920 | 4979 ft | 255 kts | 10° |
| 2026-05-09 02:42 | 11.40969 | -73.22294 | 4672 ft | 250 kts | 37° |
| 2026-05-09 02:43 | 11.42308 | -73.21197 | 4402 ft | 248 kts | 42° |
| 2026-05-09 02:43 | 11.43602 | -73.20049 | 4239 ft | 241 kts | 42° |
| 2026-05-09 02:43 | 11.44807 | -73.18891 | 4217 ft | 232 kts | 47° |
| 2026-05-09 02:43 | 11.45865 | -73.17688 | 3959 ft | 230 kts | 50° |
| 2026-05-09 02:44 | 11.46884 | -73.16452 | 3705 ft | 226 kts | 50° |
| 2026-05-09 02:44 | 11.47901 | -73.15223 | 3452 ft | 223 kts | 50° |
| 2026-05-09 02:44 | 11.48879 | -73.14040 | 3215 ft | 219 kts | 51° |
| 2026-05-09 02:44 | 11.49856 | -73.12849 | 3026 ft | 213 kts | 51° |
| 2026-05-09 02:45 | 11.50776 | -73.11736 | 3000 ft | 204 kts | 51° |
| 2026-05-09 02:45 | 11.51658 | -73.10648 | 3130 ft | 188 kts | 56° |
| 2026-05-09 02:45 | 11.52099 | -73.09479 | 3072 ft | 170 kts | 81° |
| 2026-05-09 02:45 | 11.52192 | -73.08313 | 2847 ft | 165 kts | 88° |
| 2026-05-09 02:46 | 11.52203 | -73.07162 | 2624 ft | 159 kts | 90° |
| 2026-05-09 02:46 | 11.52212 | -73.06056 | 2414 ft | 151 kts | 88° |
| 2026-05-09 02:46 | 11.52235 | -73.04993 | 2233 ft | 151 kts | 88° |
| 2026-05-09 02:46 | 11.52267 | -73.03931 | 2065 ft | 149 kts | 87° |
| 2026-05-09 02:47 | 11.52300 | -73.02912 | 1817 ft | 138 kts | 87° |
| 2026-05-09 02:47 | 11.52332 | -73.01933 | 1662 ft | 137 kts | 88° |
| 2026-05-09 02:47 | 11.52361 | -73.00970 | 1476 ft | 137 kts | 87° |
| 2026-05-09 02:47 | 11.52397 | -72.99997 | 1295 ft | 137 kts | 89° |
| 2026-05-09 02:48 | 11.52422 | -72.99036 | 1119 ft | 136 kts | 88° |
| 2026-05-09 02:48 | 11.52444 | -72.98072 | 935 ft | 136 kts | 88° |
| 2026-05-09 02:48 | 11.52472 | -72.97103 | 752 ft | 136 kts | 88° |
| 2026-05-09 02:48 | 11.52509 | -72.96151 | 577 ft | 135 kts | 87° |
| 2026-05-09 02:49 | 11.52544 | -72.95187 | 387 ft | 135 kts | 87° |
| 2026-05-09 02:49 | 11.52566 | -72.94228 | 240 ft | 135 kts | 88° |
| 2026-05-09 02:49 | 11.52601 | -72.93271 | 69 ft | 134 kts | 87° |
| 2026-05-09 02:49 | 11.52624 | -72.92499 | 51 ft | 69 kts | 88° |
| 2026-05-09 02:50 | 11.52632 | -72.92203 | 51 ft | 24 kts | 88° |
| 2026-05-09 02:50 | 11.52638 | -72.92034 | 51 ft | 22 kts | 89° |
| 2026-05-09 02:50 | 11.52640 | -72.91946 | 51 ft | 6 kts | 88° |
| 2026-05-09 02:50 | 11.52661 | -72.91906 | 51 ft | 2 kts | 24° |
| 2026-05-09 02:51 | 11.52680 | -72.91905 | 51 ft | 3 kts | 358° |
| 2026-05-09 02:51 | 11.52706 | -72.91905 | 51 ft | 4 kts | 360° |
| 2026-05-09 02:51 | 11.52736 | -72.91900 | 51 ft | 4 kts | 31° |
| 2026-05-09 02:51 | 11.52743 | -72.91893 | 51 ft | 0 kts | 60° |
| 2026-05-09 02:52 | 11.52744 | -72.91887 | 51 ft | 1 kts | 88° |
| 2026-05-09 02:52 | 11.52748 | -72.91877 | 51 ft | 1 kts | 46° |
| 2026-05-09 02:52 | 11.52762 | -72.91876 | 51 ft | 2 kts | 356° |
| 2026-05-09 02:52 | 11.52785 | -72.91876 | 51 ft | 3 kts | 0° |
| 2026-05-09 02:53 | 11.52791 | -72.91876 | 51 ft | 0 kts | 0° |